Weather at Airhaven Airport [CLOSED]

Public forecast

Using degrees Fahrenheit for public forecast. Weather courtesy of forecast.io.

Closest aviation weather report (METAR) to Airhaven Airport

Closest report is Phoenix Sky Harbor International Airport, 6.8 nm (12.6 km) ESE.

2023/04/01 19:51 (retrieved 44 minutes ago)

KPHX 011951Z 12004KT 10SM FEW180 FEW250 26/M03 A3002 RMK AO2 SLP153 T02561028

Closest aviation forecast (TAF) to Airhaven Airport

Closest forecast is Phoenix Sky Harbor International Airport, 6.8 nm (12.6 km) ESE.

2023/04/01 18:22 (retrieved 2 hours ago)

TAF KPHX 011720Z 0118/0224 11005KT P6SM FEW150 BKN200 FM012100 26006KT P6SM FEW200 FM020800 10005KT P6SM SKC FM022000 25010KT P6SM SKC